Time;durP1;ratioP1;P1;durP2;ratioP2;P2;SDS_P1;SDS_P2;PMS_P1;PMS_P2;Temp;Humidity;BMP_temperature;BMP_pressure;BME280_temperature;BME280_humidity;BME280_pressure;Samples;Min_cycle;Max_cycle;Signal;HPM_P1;HPM_P2
2020/10/04 00:00:44;;;;;;;1;0.7;;;;;;;7.61;92.93555;917.4299;;;;
2020/10/04 00:03:12;;;;;;;0.6;0.5;;;;;;;7.76;91.90039;917.473;;;;
2020/10/04 00:05:37;;;;;;;1.4;0.4;;;;;;;7.75;91.38867;917.5;;;;
2020/10/04 00:08:03;;;;;;;0.4;0.3;;;;;;;7.67;91.28027;917.5566;;;;
2020/10/04 00:10:28;;;;;;;0.6;0.4;;;;;;;7.72;91.00586;917.5742;;;;
2020/10/04 00:12:54;;;;;;;4.5;0.5;;;;;;;7.79;90.53418;917.5969;;;;
2020/10/04 00:15:24;;;;;;;1;0.5;;;;;;;7.83;90.18066;917.6062;;;;
2020/10/04 00:17:49;;;;;;;0.6;0.6;;;;;;;7.7;90.00586;917.5522;;;;
2020/10/04 00:20:14;;;;;;;0.7;0.7;;;;;;;7.66;90.53906;917.6099;;;;
2020/10/04 00:22:40;;;;;;;1;0.5;;;;;;;7.7;90.49219;917.6497;;;;
2020/10/04 00:25:05;;;;;;;0.5;0.4;;;;;;;7.79;89.94336;917.6326;;;;
2020/10/04 00:27:32;;;;;;;0.4;0.4;;;;;;;7.79;89.59375;917.688;;;;
2020/10/04 00:29:57;;;;;;;0.5;0.4;;;;;;;7.87;88.80566;917.753;;;;
2020/10/04 00:32:23;;;;;;;1;0.6;;;;;;;7.89;88.2627;917.6347;;;;
2020/10/04 00:34:48;;;;;;;0.7;0.5;;;;;;;7.85;88.42383;917.6432;;;;
2020/10/04 00:37:15;;;;;;;0.5;0.4;;;;;;;7.71;88.94043;917.8032;;;;
2020/10/04 00:39:40;;;;;;;0.4;0.4;;;;;;;7.59;89.20898;917.8141;;;;
2020/10/04 00:42:08;;;;;;;0.4;0.4;;;;;;;7.59;89.26563;917.6525;;;;
2020/10/04 00:44:33;;;;;;;0.5;0.3;;;;;;;7.66;88.66992;917.6462;;;;
2020/10/04 00:46:58;;;;;;;1.6;0.5;;;;;;;7.66;88.76953;917.674;;;;
2020/10/04 00:49:23;;;;;;;0.4;0.4;;;;;;;7.65;88.57715;917.6289;;;;
2020/10/04 00:51:48;;;;;;;0.5;0.3;;;;;;;7.61;88.46582;917.5999;;;;
2020/10/04 00:54:13;;;;;;;0.3;0.3;;;;;;;7.71;88.47461;917.5396;;;;
2020/10/04 00:56:38;;;;;;;0.3;0.3;;;;;;;7.73;88.82129;917.6041;;;;
2020/10/04 00:59:04;;;;;;;2;0.7;;;;;;;7.75;88.54102;917.5959;;;;
2020/10/04 01:01:29;;;;;;;0.5;0.4;;;;;;;7.79;88.26465;917.608;;;;
2020/10/04 01:03:54;;;;;;;0.9;0.6;;;;;;;7.58;88.8916;917.6035;;;;
2020/10/04 01:06:19;;;;;;;1.2;0.7;;;;;;;7.34;90.32715;917.5041;;;;
2020/10/04 01:08:44;;;;;;;1;0.6;;;;;;;7.28;90.7334;917.454;;;;
2020/10/04 01:11:11;;;;;;;0.6;0.6;;;;;;;7.31;90.80859;917.3904;;;;
2020/10/04 01:13:36;;;;;;;0.8;0.4;;;;;;;7.44;90.17773;917.4294;;;;
2020/10/04 01:16:05;;;;;;;2.1;1.1;;;;;;;7.32;90.01563;917.4964;;;;
2020/10/04 01:18:30;;;;;;;2.4;0.7;;;;;;;7.27;90.44629;917.4772;;;;
2020/10/04 01:20:55;;;;;;;0.9;0.4;;;;;;;7.31;90.5459;917.4688;;;;
2020/10/04 01:23:20;;;;;;;1.2;0.5;;;;;;;7.36;90;917.6124;;;;
2020/10/04 01:25:48;;;;;;;1.4;0.7;;;;;;;7.3;89.98926;917.6256;;;;
2020/10/04 01:28:13;;;;;;;2.2;0.8;;;;;;;7.34;89.80566;917.6053;;;;
2020/10/04 01:30:38;;;;;;;0.8;0.4;;;;;;;7.27;90.4707;917.6284;;;;
2020/10/04 01:33:03;;;;;;;0.4;0.4;;;;;;;7.33;90.14258;917.6426;;;;
2020/10/04 01:35:29;;;;;;;0.7;0.7;;;;;;;7.27;90.05176;917.6331;;;;
2020/10/04 01:37:55;;;;;;;2;0.6;;;;;;;7.43;89.32422;917.7106;;;;
2020/10/04 01:40:22;;;;;;;0.5;0.4;;;;;;;7.51;89.02344;917.7319;;;;
2020/10/04 01:42:46;;;;;;;1.1;0.6;;;;;;;7.5;88.12598;917.7335;;;;
2020/10/04 01:45:13;;;;;;;2.3;0.7;;;;;;;7.46;88.20898;917.81;;;;
2020/10/04 01:47:38;;;;;;;0.5;0.5;;;;;;;7.4;88.80859;917.7676;;;;
2020/10/04 01:50:04;;;;;;;0.3;0.3;;;;;;;7.4;89.11426;917.7424;;;;
2020/10/04 01:52:30;;;;;;;0.6;0.5;;;;;;;7.24;90.52148;917.7648;;;;
2020/10/04 01:54:56;;;;;;;0.5;0.5;;;;;;;7.04;91.22559;917.8237;;;;
2020/10/04 01:57:21;;;;;;;0.7;0.5;;;;;;;7.28;90.91309;917.8;;;;
2020/10/04 01:59:47;;;;;;;0.6;0.4;;;;;;;7.33;90.50488;917.8264;;;;
2020/10/04 02:02:12;;;;;;;0.5;0.4;;;;;;;7.22;90.86719;917.9448;;;;
2020/10/04 02:04:39;;;;;;;0.4;0.4;;;;;;;7.31;90.71582;918.0989;;;;
2020/10/04 02:07:04;;;;;;;0.9;0.4;;;;;;;7.33;91.03711;918.2031;;;;
2020/10/04 02:09:30;;;;;;;0.4;0.3;;;;;;;7.39;90.71094;918.2056;;;;
2020/10/04 02:11:55;;;;;;;0.7;0.4;;;;;;;7.36;91.26074;918.1545;;;;
2020/10/04 02:14:22;;;;;;;0.3;0.3;;;;;;;7.36;91.22461;918.1593;;;;
2020/10/04 02:16:47;;;;;;;1.6;0.4;;;;;;;7.43;90.71875;918.2324;;;;
2020/10/04 02:19:13;;;;;;;0.8;0.4;;;;;;;7.54;90.42578;918.2516;;;;
2020/10/04 02:21:39;;;;;;;0.3;0.3;;;;;;;7.59;89.60742;918.2598;;;;
2020/10/04 02:24:05;;;;;;;0.5;0.4;;;;;;;7.53;89.36719;918.3682;;;;
2020/10/04 02:26:30;;;;;;;0.6;0.4;;;;;;;7.48;89.75293;918.387;;;;
2020/10/04 02:28:55;;;;;;;0.8;0.3;;;;;;;7.56;89.57715;918.5198;;;;
2020/10/04 02:31:20;;;;;;;0.3;0.3;;;;;;;7.45;90.28223;918.4238;;;;
2020/10/04 02:33:46;;;;;;;0.3;0.3;;;;;;;7.45;89.97559;918.4626;;;;
2020/10/04 02:36:11;;;;;;;2.5;0.4;;;;;;;7.3;90.43066;918.5517;;;;
2020/10/04 02:38:37;;;;;;;1;0.3;;;;;;;7.25;90.90723;918.5927;;;;
2020/10/04 02:41:06;;;;;;;0.6;0.4;;;;;;;7.4;90.45215;918.6156;;;;
2020/10/04 02:43:32;;;;;;;0.8;0.5;;;;;;;7.28;89.95117;918.7601;;;;
2020/10/04 02:45:57;;;;;;;0.5;0.4;;;;;;;7.14;90.84082;918.9211;;;;
2020/10/04 02:48:21;;;;;;;0.5;0.4;;;;;;;7;91.80664;918.9244;;;;
2020/10/04 02:50:47;;;;;;;0.3;0.3;;;;;;;7.26;91.19238;918.9677;;;;
2020/10/04 02:53:12;;;;;;;0.5;0.4;;;;;;;7.31;90.31934;919.0566;;;;
2020/10/04 02:55:37;;;;;;;0.8;0.3;;;;;;;7.31;90.53711;918.9861;;;;
2020/10/04 02:58:02;;;;;;;0.7;0.3;;;;;;;7.08;91.84668;919.2263;;;;
2020/10/04 03:00:27;;;;;;;0.1;0.1;;;;;;;7.04;92.87891;919.2511;;;;
2020/10/04 03:02:52;;;;;;;0.5;0.4;;;;;;;7.2;92.07324;919.2679;;;;
2020/10/04 03:05:18;;;;;;;0.5;0.3;;;;;;;7.33;91.55859;919.381;;;;
2020/10/04 03:07:43;;;;;;;0.5;0.4;;;;;;;7.34;91.32422;919.4039;;;;
2020/10/04 03:10:12;;;;;;;0.4;0.3;;;;;;;7.27;90.77637;919.5984;;;;
2020/10/04 03:12:36;;;;;;;1.6;0.4;;;;;;;7.22;91.26367;919.6955;;;;
2020/10/04 03:15:01;;;;;;;0.7;0.3;;;;;;;7.14;91.48633;919.752;;;;
2020/10/04 03:17:26;;;;;;;0.4;0.3;;;;;;;6.9;93.10742;919.8642;;;;
2020/10/04 03:19:52;;;;;;;0.3;0.3;;;;;;;7.15;92.11133;919.8524;;;;
2020/10/04 03:22:17;;;;;;;0.5;0.4;;;;;;;7.31;91.2373;920.062;;;;
2020/10/04 03:24:43;;;;;;;0.4;0.4;;;;;;;7.34;90.20215;920.1044;;;;
2020/10/04 03:27:08;;;;;;;0.3;0.2;;;;;;;7.36;90.56738;920.1685;;;;
2020/10/04 03:29:33;;;;;;;1.6;0.6;;;;;;;7.46;89.97754;920.2297;;;;
2020/10/04 03:31:59;;;;;;;3.6;0.6;;;;;;;7.5;89.54297;920.17;;;;
2020/10/04 03:34:24;;;;;;;0.2;0.2;;;;;;;7.18;91.10645;920.2717;;;;
2020/10/04 03:36:50;;;;;;;0.4;0.4;;;;;;;6.97;92.44434;920.3203;;;;
2020/10/04 03:39:15;;;;;;;0.7;0.4;;;;;;;7;92.92578;920.472;;;;
2020/10/04 03:41:40;;;;;;;0.6;0.4;;;;;;;7.08;92.56055;920.3997;;;;
2020/10/04 03:44:06;;;;;;;0.4;0.4;;;;;;;7.21;91.89648;920.5804;;;;
2020/10/04 03:46:31;;;;;;;0.5;0.4;;;;;;;7.29;92.12891;920.5853;;;;
2020/10/04 03:48:58;;;;;;;0.4;0.3;;;;;;;7.44;91.12793;920.6931;;;;
2020/10/04 03:51:24;;;;;;;0.3;0.3;;;;;;;7.56;90.53125;920.8829;;;;
2020/10/04 03:53:49;;;;;;;0.9;0.6;;;;;;;7.66;89.57715;921.0123;;;;
2020/10/04 03:56:14;;;;;;;0.7;0.3;;;;;;;7.58;89.27637;921.0665;;;;
2020/10/04 03:58:39;;;;;;;0.6;0.4;;;;;;;7.61;89.19141;921.0405;;;;
2020/10/04 04:02:29;;;;;;;0.4;0.3;;;;;;;7.61;89.49805;920.9866;;;;
2020/10/04 04:04:54;;;;;;;0.9;0.4;;;;;;;7.67;89.30664;920.9188;;;;
2020/10/04 04:07:19;;;;;;;0.2;0.2;;;;;;;7.72;88.7627;920.9746;;;;
2020/10/04 04:09:46;;;;;;;1.3;0.4;;;;;;;7.73;88.55957;920.9738;;;;
2020/10/04 04:12:11;;;;;;;0.5;0.4;;;;;;;7.51;89.20508;921.0923;;;;
2020/10/04 04:14:36;;;;;;;1.6;0.4;;;;;;;7.25;90.47656;921.1097;;;;
2020/10/04 04:17:02;;;;;;;0.7;0.4;;;;;;;7.34;90.30469;921.0061;;;;
2020/10/04 04:19:27;;;;;;;2.4;0.5;;;;;;;7.41;90.31738;920.9997;;;;
2020/10/04 04:21:51;;;;;;;0.3;0.3;;;;;;;7.57;89.66992;921.0531;;;;
2020/10/04 04:24:17;;;;;;;0.5;0.3;;;;;;;7.5;89.97363;921.0355;;;;
2020/10/04 04:26:43;;;;;;;0.3;0.3;;;;;;;7.5;89.83789;921.0536;;;;
2020/10/04 04:29:11;;;;;;;0.3;0.2;;;;;;;7.51;89.75879;921.0457;;;;
2020/10/04 04:31:33;;;;;;;0.5;0.5;;;;;;;7.46;89.63574;921.0309;;;;
2020/10/04 04:33:59;;;;;;;0.4;0.4;;;;;;;7.43;89.82324;920.9258;;;;
2020/10/04 04:36:24;;;;;;;0.3;0.3;;;;;;;7.45;89.76074;920.9567;;;;
2020/10/04 04:38:50;;;;;;;0.5;0.2;;;;;;;7.38;89.62988;921.0851;;;;
2020/10/04 04:41:16;;;;;;;0.2;0.2;;;;;;;7.29;89.83984;921.1331;;;;
2020/10/04 04:43:41;;;;;;;0.3;0.3;;;;;;;7.29;89.95313;921.0944;;;;
2020/10/04 04:46:08;;;;;;;3.6;0.4;;;;;;;7.27;89.94727;921.1024;;;;
2020/10/04 04:48:33;;;;;;;0.4;0.4;;;;;;;7.27;89.61914;921.0977;;;;
2020/10/04 04:51:00;;;;;;;0.3;0.3;;;;;;;7.37;88.94824;921.2419;;;;
2020/10/04 04:53:25;;;;;;;0.5;0.4;;;;;;;7.33;88.5918;921.326;;;;
2020/10/04 04:55:52;;;;;;;1.6;0.5;;;;;;;7.19;89.49023;921.2711;;;;
2020/10/04 04:58:17;;;;;;;1;0.7;;;;;;;7.14;89.69434;921.2983;;;;
2020/10/04 05:00:42;;;;;;;3.7;0.3;;;;;;;7.18;89.68164;921.3029;;;;
2020/10/04 05:03:07;;;;;;;1.5;0.6;;;;;;;7.23;89.26953;921.3624;;;;
2020/10/04 05:05:34;;;;;;;0.3;0.3;;;;;;;7.24;89.0127;921.4604;;;;
2020/10/04 05:07:58;;;;;;;0.7;0.4;;;;;;;7.19;88.66309;921.4659;;;;
2020/10/04 05:10:23;;;;;;;0.4;0.4;;;;;;;7.19;88.40332;921.4786;;;;
2020/10/04 05:12:48;;;;;;;1.1;0.7;;;;;;;7.13;87.33789;921.4433;;;;
2020/10/04 05:15:13;;;;;;;0.8;0.5;;;;;;;7.17;86.83594;921.4509;;;;
2020/10/04 05:17:38;;;;;;;1.7;0.6;;;;;;;7.17;87.40234;921.4588;;;;
2020/10/04 05:20:03;;;;;;;1.6;0.9;;;;;;;7.11;88.14844;921.5359;;;;
2020/10/04 05:22:28;;;;;;;1.1;0.7;;;;;;;6.91;89.99805;921.611;;;;
2020/10/04 05:24:53;;;;;;;0.5;0.5;;;;;;;6.96;90.3252;921.6431;;;;
2020/10/04 05:27:18;;;;;;;0.7;0.6;;;;;;;6.99;90.33203;921.6652;;;;
2020/10/04 05:29:43;;;;;;;0.9;0.7;;;;;;;7.07;90.09863;921.7221;;;;
2020/10/04 05:32:08;;;;;;;0.7;0.4;;;;;;;7.16;89.60742;921.7406;;;;
2020/10/04 05:34:34;;;;;;;1.9;0.5;;;;;;;7.25;89.27539;921.7453;;;;
2020/10/04 05:36:59;;;;;;;2;0.8;;;;;;;7.27;88.7373;921.7349;;;;
2020/10/04 05:39:24;;;;;;;2.6;1.2;;;;;;;7.36;88.51758;921.7772;;;;
2020/10/04 05:41:49;;;;;;;0.8;0.7;;;;;;;7.38;88.21484;921.7905;;;;
2020/10/04 05:44:14;;;;;;;1;0.7;;;;;;;7.33;88.39648;921.7828;;;;
2020/10/04 05:46:39;;;;;;;0.6;0.6;;;;;;;7.37;88.58789;921.8008;;;;
2020/10/04 05:49:04;;;;;;;0.3;0.3;;;;;;;7.43;88.47363;921.8309;;;;
2020/10/04 05:51:30;;;;;;;1.2;0.7;;;;;;;7.44;87.86523;921.9464;;;;
2020/10/04 05:53:54;;;;;;;0.6;0.5;;;;;;;7.39;88.16016;921.9813;;;;
2020/10/04 05:56:19;;;;;;;0.7;0.4;;;;;;;7.47;88.29102;921.9486;;;;
2020/10/04 05:58:45;;;;;;;0.7;0.6;;;;;;;7.57;88.62695;922.0826;;;;
2020/10/04 06:01:10;;;;;;;0.6;0.4;;;;;;;7.78;88.08105;922.0999;;;;
2020/10/04 06:03:35;;;;;;;0.7;0.7;;;;;;;7.75;88.00781;922.1588;;;;
2020/10/04 06:06:01;;;;;;;1.6;1.3;;;;;;;7.99;87.52246;922.14;;;;
2020/10/04 06:08:26;;;;;;;1.1;0.5;;;;;;;8.12;87.40234;922.1131;;;;
2020/10/04 06:10:55;;;;;;;0.7;0.5;;;;;;;8.35;87.0752;922.1118;;;;
2020/10/04 06:13:20;;;;;;;1.2;0.6;;;;;;;8.5;86.2959;922.0918;;;;
2020/10/04 06:15:49;;;;;;;0.3;0.3;;;;;;;8.61;86.99219;922.0672;;;;
2020/10/04 06:18:11;;;;;;;0.4;0.3;;;;;;;8.63;87.08496;922.1623;;;;
2020/10/04 06:20:36;;;;;;;0.3;0.3;;;;;;;8.75;86.94922;922.2142;;;;
2020/10/04 06:23:01;;;;;;;1.2;0.7;;;;;;;8.9;87.13965;922.2274;;;;
2020/10/04 06:25:26;;;;;;;0.9;0.5;;;;;;;9.14;86.59668;922.1599;;;;
2020/10/04 06:27:51;;;;;;;0.9;0.6;;;;;;;9.27;85.91797;922.3563;;;;
2020/10/04 06:30:16;;;;;;;0.9;0.5;;;;;;;9.39;84.86914;922.459;;;;
2020/10/04 06:32:43;;;;;;;0.4;0.4;;;;;;;9.49;84.93457;922.497;;;;
2020/10/04 06:35:08;;;;;;;0.4;0.4;;;;;;;9.66;84.22754;922.5159;;;;
2020/10/04 06:37:33;;;;;;;1.4;0.6;;;;;;;9.71;82.68652;922.5566;;;;
2020/10/04 06:39:58;;;;;;;1.1;0.6;;;;;;;9.64;83.16406;922.4883;;;;
2020/10/04 06:42:23;;;;;;;0.6;0.5;;;;;;;9.71;83.79395;922.5263;;;;
2020/10/04 06:44:49;;;;;;;0.9;0.5;;;;;;;9.89;83.39551;922.6093;;;;
2020/10/04 06:47:14;;;;;;;0.4;0.3;;;;;;;10.03;84.4502;922.6028;;;;
2020/10/04 06:49:39;;;;;;;0.7;0.5;;;;;;;10.15;82.7832;922.6967;;;;
2020/10/04 06:52:05;;;;;;;2;0.5;;;;;;;10.43;81.84473;922.7084;;;;
2020/10/04 06:54:30;;;;;;;2.5;0.6;;;;;;;10.62;82.05078;922.7664;;;;
2020/10/04 06:56:56;;;;;;;0.4;0.4;;;;;;;10.82;78.57129;922.7576;;;;
2020/10/04 06:59:21;;;;;;;1.6;0.6;;;;;;;11.07;75.92871;922.7251;;;;
2020/10/04 07:01:47;;;;;;;0.2;0.2;;;;;;;11.13;74.16895;922.7772;;;;
2020/10/04 07:04:12;;;;;;;0.8;0.5;;;;;;;11.42;74.19629;922.7925;;;;
2020/10/04 07:06:37;;;;;;;0.3;0.2;;;;;;;11.71;72.48047;922.7767;;;;
2020/10/04 07:09:03;;;;;;;0.5;0.5;;;;;;;12.02;73.07227;922.7991;;;;
2020/10/04 07:11:28;;;;;;;0.4;0.3;;;;;;;12.12;73.96973;922.7596;;;;
2020/10/04 07:13:54;;;;;;;0.3;0.2;;;;;;;12.32;71.25195;922.7714;;;;
2020/10/04 07:16:19;;;;;;;0.4;0.3;;;;;;;12.46;71.66699;922.8083;;;;
2020/10/04 07:18:44;;;;;;;0.7;0.5;;;;;;;12.63;72.51953;922.8215;;;;
2020/10/04 07:21:09;;;;;;;0.3;0.2;;;;;;;12.63;69.96289;922.8206;;;;
2020/10/04 07:23:35;;;;;;;0.3;0.3;;;;;;;12.5;70.34082;922.8491;;;;
2020/10/04 07:26:00;;;;;;;0.4;0.2;;;;;;;12.59;71.61914;922.8502;;;;
2020/10/04 07:28:25;;;;;;;2.5;0.5;;;;;;;12.47;71.28906;922.8019;;;;
2020/10/04 07:30:52;;;;;;;0.6;0.4;;;;;;;12.87;71.82617;922.7946;;;;
2020/10/04 07:33:16;;;;;;;0.4;0.4;;;;;;;13.33;71.20117;922.7734;;;;
2020/10/04 07:35:42;;;;;;;0.4;0.3;;;;;;;13.76;67.52051;922.6537;;;;
2020/10/04 07:38:07;;;;;;;0.4;0.3;;;;;;;13.72;65.09961;922.6563;;;;
2020/10/04 07:40:32;;;;;;;0.3;0.3;;;;;;;13.69;65.38281;922.6771;;;;
2020/10/04 07:42:58;;;;;;;1.4;0.6;;;;;;;13.62;67.30273;922.7263;;;;
2020/10/04 07:45:23;;;;;;;0.4;0.3;;;;;;;13.88;66.00879;922.7946;;;;
2020/10/04 07:47:48;;;;;;;0.5;0.3;;;;;;;13.78;68.44336;922.8075;;;;
2020/10/04 07:50:13;;;;;;;0.2;0.1;;;;;;;13.95;67.50488;922.8692;;;;
2020/10/04 07:52:38;;;;;;;0.6;0.4;;;;;;;13.61;70.41895;922.9727;;;;
2020/10/04 07:55:05;;;;;;;0.3;0.3;;;;;;;15.26;65.42285;922.9741;;;;
2020/10/04 07:57:30;;;;;;;0.2;0.2;;;;;;;17.47;55.01172;922.9875;;;;
2020/10/04 07:59:56;;;;;;;1;0.4;;;;;;;18.16;50.37988;923.0179;;;;
2020/10/04 08:02:21;;;;;;;0.7;0.4;;;;;;;18.97;49.77344;923.1003;;;;
2020/10/04 08:04:46;;;;;;;0.2;0.1;;;;;;;19.84;49.39355;923.1074;;;;
2020/10/04 08:07:11;;;;;;;0.5;0.3;;;;;;;21.56;43.01758;923.1602;;;;
2020/10/04 08:09:37;;;;;;;0.3;0.2;;;;;;;22.83;39.92383;923.1303;;;;
2020/10/04 08:12:02;;;;;;;2.2;0.4;;;;;;;24.13;36.69531;923.1682;;;;
2020/10/04 08:14:27;;;;;;;0.2;0.2;;;;;;;24.25;36.26953;923.1898;;;;
2020/10/04 08:16:52;;;;;;;1.2;0.9;;;;;;;24.65;36.80957;923.1792;;;;
2020/10/04 08:19:18;;;;;;;0.3;0.3;;;;;;;23.35;38.06641;923.1889;;;;
2020/10/04 08:21:42;;;;;;;0.5;0.3;;;;;;;23.89;38.79395;923.1381;;;;
2020/10/04 08:24:07;;;;;;;0.3;0.2;;;;;;;23.88;38.64063;923.1326;;;;
2020/10/04 08:26:33;;;;;;;0.1;0;;;;;;;23.69;37.19922;923.1245;;;;
2020/10/04 08:28:58;;;;;;;1;0.1;;;;;;;23.69;38.54199;923.1139;;;;
2020/10/04 08:31:24;;;;;;;0.1;0.1;;;;;;;24.17;37.65234;923.0535;;;;
2020/10/04 08:33:50;;;;;;;0.7;0.2;;;;;;;23.98;38.01367;922.9467;;;;
2020/10/04 08:36:15;;;;;;;0.1;0.1;;;;;;;25.14;36.49512;923.0345;;;;
2020/10/04 08:38:40;;;;;;;0.1;0.1;;;;;;;26.12;32.6123;922.9939;;;;
2020/10/04 08:41:05;;;;;;;0.3;0.1;;;;;;;25.29;34.80762;923.0311;;;;
2020/10/04 08:43:31;;;;;;;0.3;0.3;;;;;;;24.47;35.03809;923.0021;;;;
2020/10/04 08:45:55;;;;;;;0.1;0.1;;;;;;;24.98;36.97754;923.0276;;;;
2020/10/04 08:48:21;;;;;;;0.1;0.1;;;;;;;25.46;35.69434;923.0594;;;;
2020/10/04 08:50:46;;;;;;;1.1;0.2;;;;;;;25.16;35.94141;923.1064;;;;
2020/10/04 08:53:11;;;;;;;0.2;0.2;;;;;;;25.34;35.58984;923.1755;;;;
2020/10/04 08:55:36;;;;;;;0.3;0.2;;;;;;;23.84;38.69629;923.2219;;;;
2020/10/04 08:58:01;;;;;;;0.1;0.1;;;;;;;24.53;37.24805;923.1082;;;;
2020/10/04 09:00:26;;;;;;;0.1;0;;;;;;;24.69;36.56445;923.1074;;;;
2020/10/04 09:02:51;;;;;;;0;0;;;;;;;24.5;37.13867;923.1055;;;;
2020/10/04 09:05:18;;;;;;;0.4;0.3;;;;;;;23.85;38.41406;923.1103;;;;
2020/10/04 09:07:43;;;;;;;0;0;;;;;;;23.82;38.91699;923.0606;;;;
2020/10/04 09:10:10;;;;;;;0.1;0.1;;;;;;;24.24;37.76465;923.0912;;;;
2020/10/04 09:12:36;;;;;;;0.2;0.2;;;;;;;24.36;37.63281;923.0768;;;;
2020/10/04 09:15:05;;;;;;;0;0;;;;;;;24.55;36.85938;923.1066;;;;
2020/10/04 09:17:30;;;;;;;1.5;0.3;;;;;;;23.9;37.44238;923.1423;;;;
2020/10/04 09:19:55;;;;;;;0.6;0.2;;;;;;;23.35;38.01855;923.1613;;;;
2020/10/04 09:22:20;;;;;;;0.8;0.1;;;;;;;22.94;38.45313;923.2689;;;;
2020/10/04 09:24:46;;;;;;;0.2;0.1;;;;;;;21.3;42.88672;923.2525;;;;
2020/10/04 09:27:11;;;;;;;0.1;0.1;;;;;;;20.98;42.97266;923.2772;;;;
2020/10/04 09:29:41;;;;;;;0;0;;;;;;;20.49;44.24609;923.2625;;;;
2020/10/04 09:32:06;;;;;;;0.2;0.1;;;;;;;19.8;46.15918;923.2649;;;;
2020/10/04 09:34:31;;;;;;;0.2;0.1;;;;;;;19.71;46.83789;923.2692;;;;
2020/10/04 09:36:56;;;;;;;0.1;0.1;;;;;;;19.86;46.8877;923.2728;;;;
2020/10/04 09:39:21;;;;;;;0.3;0.3;;;;;;;19.98;47.00586;923.2279;;;;
2020/10/04 09:41:46;;;;;;;0;0;;;;;;;19.49;49.35449;923.3427;;;;
2020/10/04 09:44:11;;;;;;;0.1;0.1;;;;;;;19.55;48.51074;923.3455;;;;
2020/10/04 09:46:37;;;;;;;1.5;0.3;;;;;;;19.23;49.4873;923.4164;;;;
2020/10/04 09:49:03;;;;;;;0.1;0.1;;;;;;;19.17;50.62305;923.4389;;;;
2020/10/04 09:51:27;;;;;;;0;0;;;;;;;19.28;49.25;923.4419;;;;
2020/10/04 09:53:52;;;;;;;0.2;0.2;;;;;;;19.22;50.13965;923.4618;;;;
2020/10/04 09:56:17;;;;;;;0.1;0.1;;;;;;;19.1;51.75684;923.493;;;;
2020/10/04 09:58:42;;;;;;;0.1;0.1;;;;;;;19.15;49.99219;923.5028;;;;
2020/10/04 10:01:08;;;;;;;0.1;0.1;;;;;;;19.06;50.72754;923.4958;;;;
2020/10/04 10:03:34;;;;;;;0.1;0.1;;;;;;;19.21;50.2207;923.4998;;;;
2020/10/04 10:05:59;;;;;;;0.2;0.2;;;;;;;19.25;48.74512;923.48;;;;
2020/10/04 10:08:24;;;;;;;0.2;0.2;;;;;;;19.31;50.35938;923.514;;;;
2020/10/04 10:10:50;;;;;;;0.2;0.2;;;;;;;19.22;51.29297;923.5126;;;;
2020/10/04 10:13:14;;;;;;;0.1;0.1;;;;;;;19.16;50.78516;923.5719;;;;
2020/10/04 10:15:43;;;;;;;0;0;;;;;;;19.07;52.66016;923.572;;;;
2020/10/04 10:18:08;;;;;;;0.3;0.2;;;;;;;18.88;50.41602;923.5925;;;;
2020/10/04 10:20:34;;;;;;;0.1;0.1;;;;;;;19.03;49.72266;923.5207;;;;
2020/10/04 10:23:00;;;;;;;0.1;0.1;;;;;;;19.13;51.02637;923.4401;;;;
2020/10/04 10:25:28;;;;;;;0.3;0.3;;;;;;;19.25;49.66504;923.5098;;;;
2020/10/04 10:27:54;;;;;;;0.2;0.2;;;;;;;19.3;48.91309;923.5002;;;;
2020/10/04 10:30:20;;;;;;;0.2;0.2;;;;;;;19.45;49.75781;923.4973;;;;
2020/10/04 10:32:45;;;;;;;0.2;0.1;;;;;;;19.43;49.5;923.5682;;;;
2020/10/04 10:35:10;;;;;;;0.2;0.2;;;;;;;19.42;49.125;923.5228;;;;
2020/10/04 10:37:35;;;;;;;0.3;0.1;;;;;;;19.38;49.93555;923.528;;;;
2020/10/04 10:40:01;;;;;;;0.7;0.4;;;;;;;19.25;50.58594;923.5672;;;;
2020/10/04 10:42:26;;;;;;;0.2;0.1;;;;;;;19.19;50.07813;923.4766;;;;
2020/10/04 10:44:51;;;;;;;0.1;0.1;;;;;;;19.07;52.95117;923.5375;;;;
2020/10/04 10:47:16;;;;;;;0.4;0.2;;;;;;;19.1;52.88574;923.5542;;;;
2020/10/04 10:49:42;;;;;;;0.1;0.1;;;;;;;19.25;51.05176;923.5072;;;;
2020/10/04 10:52:07;;;;;;;0.2;0.2;;;;;;;19.28;50.83398;923.5461;;;;
2020/10/04 10:54:32;;;;;;;0.3;0.1;;;;;;;19.33;51.22266;923.5416;;;;
2020/10/04 10:56:57;;;;;;;0;0;;;;;;;19.49;50.53223;923.5574;;;;
2020/10/04 10:59:22;;;;;;;0.1;0.1;;;;;;;19.48;52.66211;923.5259;;;;
2020/10/04 11:01:47;;;;;;;0.1;0.1;;;;;;;19.81;50.55664;923.5608;;;;
2020/10/04 11:04:12;;;;;;;0.1;0.1;;;;;;;20.09;48.48828;923.6161;;;;
2020/10/04 11:06:37;;;;;;;0.1;0.1;;;;;;;20.11;49.98438;923.6255;;;;
2020/10/04 11:09:03;;;;;;;0.2;0.1;;;;;;;19.79;49.03809;923.6613;;;;
2020/10/04 11:11:28;;;;;;;0.1;0.1;;;;;;;19.71;49.2627;923.6926;;;;
2020/10/04 11:13:53;;;;;;;0.5;0.2;;;;;;;19.61;48.59863;923.6925;;;;
2020/10/04 11:16:18;;;;;;;0;0;;;;;;;19.19;49.8457;923.7325;;;;
2020/10/04 11:18:43;;;;;;;0.9;0.5;;;;;;;19.33;49.80273;923.7522;;;;
2020/10/04 11:21:09;;;;;;;0.1;0.1;;;;;;;19.35;48.70996;923.7528;;;;
2020/10/04 11:23:34;;;;;;;0.2;0.2;;;;;;;19.12;49.90723;923.803;;;;
2020/10/04 11:26:01;;;;;;;0;0;;;;;;;18.92;50.35059;923.7625;;;;
2020/10/04 11:28:26;;;;;;;1.6;0.6;;;;;;;18.57;51.58789;923.8077;;;;
2020/10/04 11:30:55;;;;;;;0.2;0.1;;;;;;;18.18;51.9375;923.794;;;;
2020/10/04 11:33:21;;;;;;;0.1;0.1;;;;;;;18.04;52.24707;923.7904;;;;
2020/10/04 11:35:45;;;;;;;0.1;0.1;;;;;;;17.69;54.06348;923.8695;;;;
2020/10/04 11:38:10;;;;;;;2.8;0.4;;;;;;;17.75;54.36035;923.9531;;;;
2020/10/04 11:40:35;;;;;;;0.1;0.1;;;;;;;18.06;54.15527;923.9763;;;;
2020/10/04 11:43:00;;;;;;;0;0;;;;;;;18.22;53.57031;923.914;;;;
2020/10/04 11:45:25;;;;;;;0;0;;;;;;;18.05;53.20215;923.937;;;;
2020/10/04 11:47:50;;;;;;;0.2;0;;;;;;;18.05;54.69922;923.9299;;;;
2020/10/04 11:50:15;;;;;;;0.3;0.1;;;;;;;17.96;53.45703;923.9135;;;;
2020/10/04 11:52:55;;;;;;;1.1;0.2;;;;;;;18.13;52.95508;923.9442;;;;
2020/10/04 11:55:05;;;;;;;0.1;0.1;;;;;;;17.93;52.5127;923.8742;;;;
2020/10/04 11:57:31;;;;;;;0.1;0;;;;;;;17.9;53.57813;923.9303;;;;
2020/10/04 11:59:56;;;;;;;0.3;0.2;;;;;;;19.08;51.17188;923.8078;;;;
2020/10/04 12:02:21;;;;;;;0.2;0.1;;;;;;;19.83;49.14844;923.7458;;;;
2020/10/04 12:04:46;;;;;;;0.1;0.1;;;;;;;19.99;47.08789;923.7495;;;;
2020/10/04 12:07:11;;;;;;;0.6;0.2;;;;;;;20.14;46.80078;923.8062;;;;
2020/10/04 12:09:37;;;;;;;0.4;0.2;;;;;;;20.34;47.72168;923.7975;;;;
2020/10/04 12:12:02;;;;;;;0;0;;;;;;;20.17;46.20801;923.7917;;;;
2020/10/04 12:14:27;;;;;;;0.5;0.2;;;;;;;19.99;47.19434;923.7904;;;;
2020/10/04 12:16:52;;;;;;;0.2;0.1;;;;;;;19.73;47.85352;923.7844;;;;
2020/10/04 12:19:17;;;;;;;0.1;0.1;;;;;;;19.44;48.25391;923.7559;;;;
2020/10/04 12:21:44;;;;;;;0.1;0.1;;;;;;;19.22;48.53223;923.7886;;;;
2020/10/04 12:24:09;;;;;;;0.3;0.3;;;;;;;18.97;48.95996;923.8222;;;;
2020/10/04 12:26:34;;;;;;;0.5;0.3;;;;;;;18.84;48.57227;923.7734;;;;
2020/10/04 12:28:59;;;;;;;0.1;0.1;;;;;;;18.87;49.38965;923.8333;;;;
2020/10/04 12:31:25;;;;;;;0.4;0.2;;;;;;;18.87;49.62207;923.8522;;;;
2020/10/04 12:33:51;;;;;;;0.3;0.2;;;;;;;18.48;51.27637;923.9216;;;;
2020/10/04 12:36:16;;;;;;;0.8;0.1;;;;;;;18.52;51.04785;923.8886;;;;
2020/10/04 12:38:41;;;;;;;0.1;0.1;;;;;;;18.75;50.87793;923.8956;;;;
2020/10/04 12:41:06;;;;;;;0.2;0.2;;;;;;;19.02;50.4082;923.9196;;;;
2020/10/04 12:43:35;;;;;;;0.2;0.2;;;;;;;18.78;48.96191;923.9475;;;;
2020/10/04 12:46:00;;;;;;;1.4;0.1;;;;;;;18.76;50.54102;924.0291;;;;
2020/10/04 12:48:25;;;;;;;0.2;0.1;;;;;;;18.55;50.4248;924.055;;;;
2020/10/04 12:50:50;;;;;;;0.1;0.1;;;;;;;18.29;51.17285;924.019;;;;
2020/10/04 12:53:15;;;;;;;0.2;0.1;;;;;;;18.33;51.43359;924.0189;;;;
2020/10/04 12:55:41;;;;;;;0.9;0.2;;;;;;;18.76;50.26172;924.027;;;;
2020/10/04 12:58:06;;;;;;;0;0;;;;;;;19.13;50.11914;924.058;;;;
2020/10/04 13:00:31;;;;;;;0.7;0.2;;;;;;;20.38;46.45313;923.993;;;;
2020/10/04 13:02:56;;;;;;;0.5;0.1;;;;;;;20.76;46.60938;924.0924;;;;
2020/10/04 13:05:22;;;;;;;0.1;0.1;;;;;;;20.65;45.75684;924.0804;;;;
2020/10/04 13:07:47;;;;;;;0.2;0.1;;;;;;;20.08;46.01367;924.0812;;;;
2020/10/04 13:10:15;;;;;;;0.2;0.2;;;;;;;19.72;48.15527;924.0873;;;;
2020/10/04 13:12:40;;;;;;;0.4;0.3;;;;;;;19.23;49.24512;924.0948;;;;
2020/10/04 13:15:06;;;;;;;0;0;;;;;;;18.94;50.87598;924.0861;;;;
2020/10/04 13:17:31;;;;;;;0.9;0.3;;;;;;;18.81;51.91895;924.1408;;;;
2020/10/04 13:19:58;;;;;;;0.2;0.2;;;;;;;18.33;51.96777;924.1892;;;;
2020/10/04 13:22:24;;;;;;;0.3;0.3;;;;;;;17.81;52.74316;924.1882;;;;
2020/10/04 13:24:48;;;;;;;0.2;0.1;;;;;;;17.74;54.56836;924.2468;;;;
2020/10/04 13:27:14;;;;;;;0.2;0.2;;;;;;;17.27;56.6084;924.3005;;;;
2020/10/04 13:29:39;;;;;;;0.6;0.4;;;;;;;17.21;56.35742;924.335;;;;
2020/10/04 13:32:04;;;;;;;0;0;;;;;;;17.12;57.27441;924.3315;;;;
2020/10/04 13:34:29;;;;;;;0.5;0.3;;;;;;;17.23;56.42969;924.2651;;;;
2020/10/04 13:36:56;;;;;;;0.4;0.2;;;;;;;17.3;56.14844;924.2343;;;;
2020/10/04 13:39:21;;;;;;;0.2;0.1;;;;;;;17.46;56.16895;924.2855;;;;
2020/10/04 13:41:47;;;;;;;0.2;0.2;;;;;;;17.38;56.05566;924.3396;;;;
2020/10/04 13:44:12;;;;;;;0;0;;;;;;;17.36;56.13281;924.3519;;;;
2020/10/04 13:46:37;;;;;;;0.7;0.4;;;;;;;17.32;55.66406;924.3116;;;;
2020/10/04 13:49:02;;;;;;;0.1;0.1;;;;;;;17.25;56.5498;924.3036;;;;
2020/10/04 13:51:27;;;;;;;0.2;0.2;;;;;;;17.32;56.32617;924.3806;;;;
2020/10/04 13:53:52;;;;;;;0.4;0.3;;;;;;;17.09;56.45898;924.4936;;;;
2020/10/04 13:56:18;;;;;;;1.2;0.2;;;;;;;16.99;57.04785;924.5615;;;;
2020/10/04 13:58:43;;;;;;;0.1;0.1;;;;;;;16.87;56.87012;924.5451;;;;
2020/10/04 14:01:08;;;;;;;0.8;0.2;;;;;;;17.03;56.80859;924.4816;;;;
2020/10/04 14:03:33;;;;;;;0;0;;;;;;;17.02;56.31055;924.4578;;;;
2020/10/04 14:05:59;;;;;;;0.4;0.3;;;;;;;17.11;56.84375;924.4703;;;;
2020/10/04 14:08:24;;;;;;;1;0.2;;;;;;;17.18;56.3418;924.4582;;;;
2020/10/04 14:10:49;;;;;;;0.2;0.1;;;;;;;17.23;56.25586;924.4186;;;;
2020/10/04 14:13:14;;;;;;;1.6;0.3;;;;;;;17.31;56.0918;924.3915;;;;
2020/10/04 14:15:40;;;;;;;0.3;0.2;;;;;;;17.47;56.54102;924.4484;;;;
2020/10/04 14:18:05;;;;;;;0.3;0.3;;;;;;;17.47;56.82129;924.4522;;;;
2020/10/04 14:20:37;;;;;;;0.5;0.1;;;;;;;17.49;56.50879;924.4928;;;;